Time;durP1;ratioP1;P1;durP2;ratioP2;P2;SDS_P1;SDS_P2;PMS_P1;PMS_P2;Temp;Humidity;BMP_temperature;BMP_pressure;BME280_temperature;BME280_humidity;BME280_pressure;Samples;Min_cycle;Max_cycle;Signal;HPM_P1;HPM_P2
2021/09/23 00:00:14;;;;;;;;;;;10.20;1.00;;;;;;5068456;28;20048;-67
2021/09/23 00:05:12;;;;;;;;;;;10.20;1.00;;;;;;5063044;28;19916;-68
2021/09/23 00:07:38;;;;;;;;;;;10.10;1.00;;;;;;5067700;28;19977;-68
2021/09/23 00:10:04;;;;;;;;;;;10.10;1.00;;;;;;5067676;28;19916;-70
2021/09/23 00:12:30;;;;;;;;;;;10.10;1.00;;;;;;5066852;28;19962;-69
2021/09/23 00:14:55;;;;;;;;;;;10.00;1.00;;;;;;5049746;28;19964;-69
2021/09/23 00:17:21;;;;;;;;;;;10.00;1.00;;;;;;5048651;28;19909;-70
2021/09/23 00:19:46;;;;;;;;;;;10.00;1.00;;;;;;5048032;28;20008;-70
2021/09/23 00:22:12;;;;;;;;;;;10.00;1.00;;;;;;5047308;28;19947;-67
2021/09/23 00:24:37;;;;;;;;;;;10.00;1.00;;;;;;5055436;28;20392;-70
2021/09/23 00:27:03;;;;;;;;;;;10.00;1.00;;;;;;5051383;28;19909;-67
2021/09/23 00:29:29;;;;;;;;;;;9.90;1.00;;;;;;5047719;28;19923;-67
2021/09/23 00:31:55;;;;;;;;;;;9.90;1.00;;;;;;5047811;28;19909;-67
2021/09/23 00:34:20;;;;;;;;;;;9.90;1.00;;;;;;5048226;28;19964;-67
2021/09/23 00:36:46;;;;;;;;;;;9.90;1.00;;;;;;5045792;28;19916;-67
2021/09/23 00:39:11;;;;;;;;;;;9.80;1.00;;;;;;5048426;28;19939;-66
2021/09/23 00:41:37;;;;;;;;;;;9.80;1.00;;;;;;5047960;28;19912;-67
2021/09/23 00:44:12;;;;;;;;;;;9.80;1.00;;;;;;5047343;28;19909;-67
2021/09/23 00:46:37;;;;;;;;;;;9.70;1.00;;;;;;5048318;28;19909;-66
2021/09/23 00:49:03;;;;;;;;;;;9.70;1.00;;;;;;5048135;28;19916;-67
2021/09/23 00:51:28;;;;;;;;;;;9.80;1.00;;;;;;5047662;28;19995;-66
2021/09/23 00:53:53;;;;;;;;;;;9.80;1.00;;;;;;5047207;28;19909;-66
2021/09/23 00:56:19;;;;;;;;;;;9.70;1.00;;;;;;5047163;28;19917;-67
2021/09/23 00:58:44;;;;;;;;;;;9.70;1.00;;;;;;5047428;28;20003;-66
2021/09/23 01:01:10;;;;;;;;;;;9.70;1.00;;;;;;5048056;28;19912;-67
2021/09/23 01:03:36;;;;;;;;;;;9.70;1.00;;;;;;5047709;28;20289;-67
2021/09/23 01:06:01;;;;;;;;;;;9.60;1.00;;;;;;5047428;28;20054;-67
2021/09/23 01:08:27;;;;;;;;;;;9.60;1.00;;;;;;5055987;28;19908;-68
2021/09/23 01:10:52;;;;;;;;;;;9.60;1.00;;;;;;5062293;28;20021;-67
2021/09/23 01:13:19;;;;;;;;;;;9.60;1.00;;;;;;5066028;28;19909;-67
2021/09/23 01:15:44;;;;;;;;;;;9.60;1.00;;;;;;5051567;28;19962;-70
2021/09/23 01:18:10;;;;;;;;;;;9.60;1.00;;;;;;5051773;28;19943;-66
2021/09/23 01:20:35;;;;;;;;;;;9.60;1.00;;;;;;5051244;28;19917;-67
2021/09/23 01:23:01;;;;;;;;;;;9.50;1.00;;;;;;5050669;28;20397;-67
2021/09/23 01:25:26;;;;;;;;;;;9.50;1.00;;;;;;5061292;28;19999;-68
2021/09/23 01:27:52;;;;;;;;;;;9.40;1.00;;;;;;5062734;28;20340;-67
2021/09/23 01:30:18;;;;;;;;;;;9.40;1.00;;;;;;5036448;28;19936;-66
2021/09/23 01:32:43;;;;;;;;;;;9.30;1.00;;;;;;5030605;28;19909;-67
2021/09/23 01:35:09;;;;;;;;;;;9.30;1.00;;;;;;5031173;28;19921;-66
2021/09/23 01:37:35;;;;;;;;;;;9.30;1.00;;;;;;5028882;28;19909;-67
2021/09/23 01:40:02;;;;;;;;;;;9.20;1.00;;;;;;5030602;28;19943;-67
2021/09/23 01:42:28;;;;;;;;;;;9.20;1.00;;;;;;5030752;28;19909;-67
2021/09/23 01:44:54;;;;;;;;;;;9.10;1.00;;;;;;5030884;28;19916;-66
2021/09/23 01:47:19;;;;;;;;;;;9.10;1.00;;;;;;5031404;28;19956;-67
2021/09/23 01:49:45;;;;;;;;;;;9.00;1.00;;;;;;5031316;28;19913;-67
2021/09/23 01:52:10;;;;;;;;;;;9.00;1.00;;;;;;5050132;28;20066;-67
2021/09/23 01:54:36;;;;;;;;;;;9.00;1.00;;;;;;5049371;28;20503;-67
2021/09/23 01:57:01;;;;;;;;;;;9.00;1.00;;;;;;5050124;28;19960;-66
2021/09/23 01:59:27;;;;;;;;;;;9.00;1.00;;;;;;5050273;28;19909;-67
2021/09/23 02:01:52;;;;;;;;;;;9.00;1.00;;;;;;5050271;28;20043;-66
2021/09/23 02:04:18;;;;;;;;;;;8.90;1.00;;;;;;5050237;28;19939;-66
2021/09/23 02:06:44;;;;;;;;;;;8.90;1.00;;;;;;5049929;28;19909;-67
2021/09/23 02:09:09;;;;;;;;;;;8.90;1.00;;;;;;5050831;28;19920;-68
2021/09/23 02:11:35;;;;;;;;;;;8.90;1.00;;;;;;5050022;28;19909;-67
2021/09/23 02:14:01;;;;;;;;;;;8.90;1.00;;;;;;5059912;28;20515;-66
2021/09/23 02:16:26;;;;;;;;;;;8.90;1.00;;;;;;5070479;28;19995;-70
2021/09/23 02:18:52;;;;;;;;;;;8.80;1.00;;;;;;5069478;28;19912;-70
2021/09/23 02:21:17;;;;;;;;;;;8.90;1.00;;;;;;5069500;28;19962;-67
2021/09/23 02:23:43;;;;;;;;;;;8.80;1.00;;;;;;5068913;28;20391;-67
2021/09/23 02:26:08;;;;;;;;;;;8.80;1.00;;;;;;5039917;28;20376;-66
2021/09/23 02:28:35;;;;;;;;;;;8.70;1.00;;;;;;5032723;28;20281;-66
2021/09/23 02:31:01;;;;;;;;;;;8.70;1.00;;;;;;5049648;28;19915;-68
2021/09/23 02:33:26;;;;;;;;;;;8.70;1.00;;;;;;5048691;28;20453;-67
2021/09/23 02:35:52;;;;;;;;;;;8.60;1.00;;;;;;5049077;28;19909;-67
2021/09/23 02:38:17;;;;;;;;;;;8.60;1.00;;;;;;5049891;28;20019;-67
2021/09/23 02:40:43;;;;;;;;;;;8.60;1.00;;;;;;5048961;28;19912;-67
2021/09/23 02:43:08;;;;;;;;;;;8.60;1.00;;;;;;5048355;28;20448;-67
2021/09/23 02:45:34;;;;;;;;;;;8.60;1.00;;;;;;5049460;28;20029;-69
2021/09/23 02:48:00;;;;;;;;;;;8.60;1.00;;;;;;5049626;28;19913;-69
2021/09/23 02:50:25;;;;;;;;;;;8.50;1.00;;;;;;5064429;28;20257;-67
2021/09/23 02:52:50;;;;;;;;;;;8.60;1.00;;;;;;5048918;28;19916;-67
2021/09/23 02:55:16;;;;;;;;;;;8.60;1.00;;;;;;5048505;28;19915;-67
2021/09/23 02:57:41;;;;;;;;;;;8.60;1.00;;;;;;5049050;28;19917;-66
2021/09/23 03:00:07;;;;;;;;;;;8.50;1.00;;;;;;5049528;28;19939;-67
2021/09/23 03:02:33;;;;;;;;;;;8.50;1.00;;;;;;5053476;28;19978;-66
2021/09/23 03:04:58;;;;;;;;;;;8.40;1.00;;;;;;5061848;28;19912;-66
2021/09/23 03:07:24;;;;;;;;;;;8.40;1.00;;;;;;5068342;28;19909;-67
2021/09/23 03:09:49;;;;;;;;;;;8.50;1.00;;;;;;5068276;28;20003;-67
2021/09/23 03:12:15;;;;;;;;;;;8.50;1.00;;;;;;5068697;28;19966;-67
2021/09/23 03:14:40;;;;;;;;;;;8.50;1.00;;;;;;5052566;28;19916;-66
2021/09/23 03:17:06;;;;;;;;;;;8.50;1.00;;;;;;5048846;28;19908;-67
2021/09/23 03:19:32;;;;;;;;;;;8.50;1.00;;;;;;5048564;28;19958;-67
2021/09/23 03:21:58;;;;;;;;;;;8.50;1.00;;;;;;5048269;28;19913;-66
2021/09/23 03:24:23;;;;;;;;;;;8.50;1.00;;;;;;5054584;28;19962;-68
2021/09/23 03:26:49;;;;;;;;;;;8.40;1.00;;;;;;5051675;28;19909;-67
2021/09/23 03:29:14;;;;;;;;;;;8.40;1.00;;;;;;5048639;28;19912;-67
2021/09/23 03:31:40;;;;;;;;;;;8.40;1.00;;;;;;5047927;28;19958;-68
2021/09/23 03:34:05;;;;;;;;;;;8.30;1.00;;;;;;5047727;28;19912;-67
2021/09/23 03:36:31;;;;;;;;;;;8.30;1.00;;;;;;5048334;28;19995;-67
2021/09/23 03:38:57;;;;;;;;;;;8.20;1.00;;;;;;5048929;28;20048;-67
2021/09/23 03:41:23;;;;;;;;;;;8.20;1.00;;;;;;5047871;28;19913;-68
2021/09/23 03:43:48;;;;;;;;;;;8.20;1.00;;;;;;5047573;28;19912;-68
2021/09/23 03:46:14;;;;;;;;;;;8.20;1.00;;;;;;5048702;28;19916;-67
2021/09/23 03:48:40;;;;;;;;;;;8.20;1.00;;;;;;5048703;28;19915;-68
2021/09/23 03:51:05;;;;;;;;;;;8.20;1.00;;;;;;5048390;28;19930;-67
2021/09/23 03:53:31;;;;;;;;;;;8.10;1.00;;;;;;5047945;28;19916;-67
2021/09/23 03:55:56;;;;;;;;;;;8.10;1.00;;;;;;5047547;28;19924;-67
2021/09/23 03:58:22;;;;;;;;;;;8.10;1.00;;;;;;5048121;28;19925;-67
2021/09/23 04:00:48;;;;;;;;;;;8.10;1.00;;;;;;5048523;28;19984;-67
2021/09/23 04:03:13;;;;;;;;;;;8.00;1.00;;;;;;5055902;28;20024;-67
2021/09/23 04:05:38;;;;;;;;;;;8.00;1.00;;;;;;5066233;28;19928;-68
2021/09/23 04:08:04;;;;;;;;;;;8.00;1.00;;;;;;5068179;28;19912;-67
2021/09/23 04:10:30;;;;;;;;;;;8.00;1.00;;;;;;5068087;28;19920;-67
2021/09/23 04:12:56;;;;;;;;;;;8.00;1.00;;;;;;5065863;28;20003;-67
2021/09/23 04:15:22;;;;;;;;;;;8.00;1.00;;;;;;5048485;28;19916;-67
2021/09/23 04:17:48;;;;;;;;;;;8.00;1.00;;;;;;5047972;28;19920;-68
2021/09/23 04:20:13;;;;;;;;;;;7.90;1.00;;;;;;5048664;28;19919;-67
2021/09/23 04:22:39;;;;;;;;;;;7.90;1.00;;;;;;5047212;28;19921;-68
2021/09/23 04:25:04;;;;;;;;;;;8.00;1.00;;;;;;5058358;28;19908;-66
2021/09/23 04:27:30;;;;;;;;;;;7.90;1.00;;;;;;5048265;28;19919;-67
2021/09/23 04:29:56;;;;;;;;;;;8.00;1.00;;;;;;5047610;28;19925;-66
2021/09/23 04:32:21;;;;;;;;;;;8.00;1.00;;;;;;5047485;28;19999;-67
2021/09/23 04:34:47;;;;;;;;;;;7.90;1.00;;;;;;5047607;28;20387;-67
2021/09/23 04:37:12;;;;;;;;;;;7.90;1.00;;;;;;5044547;28;19920;-66
2021/09/23 04:39:38;;;;;;;;;;;7.90;1.00;;;;;;5047379;28;19916;-67
2021/09/23 04:42:03;;;;;;;;;;;7.90;1.00;;;;;;5048360;28;20004;-67
2021/09/23 04:44:29;;;;;;;;;;;7.80;1.00;;;;;;5051549;28;19913;-68
2021/09/23 04:46:55;;;;;;;;;;;7.80;1.00;;;;;;5051730;28;19912;-67
2021/09/23 04:49:20;;;;;;;;;;;7.90;1.00;;;;;;5052058;28;19943;-66
2021/09/23 04:51:47;;;;;;;;;;;7.80;1.00;;;;;;5051092;28;19909;-67
2021/09/23 04:54:13;;;;;;;;;;;7.90;1.00;;;;;;5051236;28;19909;-69
2021/09/23 04:56:39;;;;;;;;;;;7.90;1.00;;;;;;5050840;28;19982;-66
2021/09/23 04:59:04;;;;;;;;;;;7.90;1.00;;;;;;5051490;28;19931;-67
2021/09/23 05:01:31;;;;;;;;;;;7.90;1.00;;;;;;5051974;28;20662;-67
2021/09/23 05:03:56;;;;;;;;;;;7.90;1.00;;;;;;5047060;28;19999;-67
2021/09/23 05:06:22;;;;;;;;;;;7.90;1.00;;;;;;5046633;28;20270;-67
2021/09/23 05:08:47;;;;;;;;;;;8.00;1.00;;;;;;5043507;28;19963;-67
2021/09/23 05:11:13;;;;;;;;;;;8.00;1.00;;;;;;5039528;28;20271;-67
2021/09/23 05:13:38;;;;;;;;;;;8.00;1.00;;;;;;5042234;28;19928;-68
2021/09/23 05:16:04;;;;;;;;;;;8.00;1.00;;;;;;5040995;28;20048;-67
2021/09/23 05:18:30;;;;;;;;;;;8.10;1.00;;;;;;5038663;28;19913;-68
2021/09/23 05:20:55;;;;;;;;;;;8.20;1.00;;;;;;5036251;28;19947;-67
2021/09/23 05:23:21;;;;;;;;;;;8.40;1.00;;;;;;5039304;28;19951;-68
2021/09/23 05:25:46;;;;;;;;;;;8.70;1.00;;;;;;5058671;28;20440;-68
2021/09/23 05:28:12;;;;;;;;;;;9.10;1.00;;;;;;5049185;28;19913;-67
2021/09/23 05:30:39;;;;;;;;;;;9.60;1.00;;;;;;5047023;28;19913;-67
2021/09/23 05:33:05;;;;;;;;;;;10.20;1.00;;;;;;5039657;28;19916;-68
2021/09/23 05:35:31;;;;;;;;;;;10.80;1.00;;;;;;5039869;28;19924;-68
2021/09/23 05:37:56;;;;;;;;;;;11.40;99.90;;;;;;5038866;28;19917;-70
2021/09/23 05:40:22;;;;;;;;;;;12.00;99.90;;;;;;5033607;28;19916;-68
2021/09/23 05:42:47;;;;;;;;;;;12.70;1.00;;;;;;5038984;28;20409;-68
2021/09/23 05:45:13;;;;;;;;;;;13.40;43.70;;;;;;5038939;28;19913;-68
2021/09/23 05:47:40;;;;;;;;;;;14.00;1.00;;;;;;5040685;28;20027;-69
2021/09/23 05:50:06;;;;;;;;;;;14.50;1.00;;;;;;5040877;28;19913;-68
2021/09/23 05:52:32;;;;;;;;;;;15.10;1.00;;;;;;5040059;28;19970;-70
2021/09/23 05:54:57;;;;;;;;;;;15.60;1.00;;;;;;5037644;28;19909;-68
2021/09/23 05:57:24;;;;;;;;;;;16.10;99.90;;;;;;5039641;28;19917;-68
2021/09/23 05:59:50;;;;;;;;;;;16.70;99.90;;;;;;5039010;28;20011;-69
2021/09/23 06:02:16;;;;;;;;;;;17.30;99.90;;;;;;5037741;28;19919;-70
2021/09/23 06:04:41;;;;;;;;;;;17.90;99.90;;;;;;5040415;28;20299;-68
2021/09/23 06:07:07;;;;;;;;;;;18.70;99.90;;;;;;5038537;28;19909;-68
2021/09/23 06:09:33;;;;;;;;;;;19.60;99.90;;;;;;5032006;28;19913;-68
2021/09/23 06:11:58;;;;;;;;;;;19.80;99.90;;;;;;5038880;28;20349;-68
2021/09/23 06:14:23;;;;;;;;;;;20.00;99.90;;;;;;5041522;28;19920;-69
2021/09/23 06:16:49;;;;;;;;;;;20.50;99.90;;;;;;5037932;28;19932;-68
2021/09/23 06:19:15;;;;;;;;;;;21.40;99.90;;;;;;5040238;28;19944;-69
2021/09/23 06:21:40;;;;;;;;;;;22.20;99.90;;;;;;5037978;28;20017;-67
2021/09/23 06:24:06;;;;;;;;;;;22.60;99.90;;;;;;5037455;28;19951;-67
2021/09/23 06:26:32;;;;;;;;;;;23.00;99.90;;;;;;5049513;28;19912;-67
2021/09/23 06:28:58;;;;;;;;;;;23.70;99.90;;;;;;5045852;28;19912;-68
2021/09/23 06:31:24;;;;;;;;;;;24.40;99.90;;;;;;5028472;28;20329;-68
2021/09/23 06:33:50;;;;;;;;;;;25.60;99.90;;;;;;5028084;28;19913;-68
2021/09/23 06:36:16;;;;;;;;;;;26.30;99.90;;;;;;5029172;28;19915;-68
2021/09/23 06:38:41;;;;;;;;;;;27.20;99.90;;;;;;5029401;28;19944;-68
2021/09/23 06:41:10;;;;;;;;;;;28.20;99.90;;;;;;5027984;28;19935;-68
2021/09/23 06:43:36;;;;;;;;;;;28.50;99.90;;;;;;5028548;28;19954;-68
2021/09/23 06:46:01;;;;;;;;;;;29.60;99.90;;;;;;5029866;28;19987;-67
2021/09/23 06:48:27;;;;;;;;;;;30.30;99.90;;;;;;5029745;28;20376;-67
2021/09/23 06:50:52;;;;;;;;;;;30.80;99.90;;;;;;5039120;28;19915;-68
2021/09/23 06:53:18;;;;;;;;;;;31.00;99.90;;;;;;5048386;28;19913;-68
2021/09/23 06:55:43;;;;;;;;;;;32.00;99.90;;;;;;5049191;28;20008;-68
2021/09/23 06:58:09;;;;;;;;;;;32.30;99.90;;;;;;5049389;28;19963;-68
2021/09/23 07:00:34;;;;;;;;;;;32.20;99.90;;;;;;5048383;28;19974;-69
2021/09/23 07:02:59;;;;;;;;;;;32.40;99.90;;;;;;5048244;28;19913;-69
2021/09/23 07:05:25;;;;;;;;;;;32.70;99.90;;;;;;5048248;28;20384;-70
2021/09/23 07:07:50;;;;;;;;;;;33.10;99.90;;;;;;5048954;28;19966;-69
2021/09/23 07:10:16;;;;;;;;;;;33.60;99.90;;;;;;5049756;28;19909;-69
2021/09/23 07:12:41;;;;;;;;;;;33.70;99.90;;;;;;5047585;28;20014;-69
2021/09/23 07:15:07;;;;;;;;;;;33.80;96.60;;;;;;5069024;28;20378;-68
2021/09/23 07:17:34;;;;;;;;;;;34.40;92.50;;;;;;5069090;28;19931;-68
2021/09/23 07:19:59;;;;;;;;;;;35.60;84.80;;;;;;5069162;28;20453;-69
2021/09/23 07:22:25;;;;;;;;;;;36.20;77.30;;;;;;5068431;28;19923;-69
2021/09/23 07:24:50;;;;;;;;;;;36.50;68.40;;;;;;5059499;28;19949;-69
2021/09/23 07:27:16;;;;;;;;;;;36.40;59.30;;;;;;5029667;28;19909;-70
2021/09/23 07:29:41;;;;;;;;;;;36.90;53.20;;;;;;5041142;28;19909;-69
2021/09/23 07:32:09;;;;;;;;;;;37.00;47.60;;;;;;5048092;28;20049;-69
2021/09/23 07:34:34;;;;;;;;;;;36.70;41.70;;;;;;5048888;28;20065;-70
2021/09/23 07:37:00;;;;;;;;;;;36.80;36.30;;;;;;5048512;28;19952;-70
2021/09/23 07:39:25;;;;;;;;;;;37.10;31.90;;;;;;5048666;28;19986;-69
2021/09/23 07:41:51;;;;;;;;;;;37.20;28.70;;;;;;5047160;28;20026;-69
2021/09/23 07:44:20;;;;;;;;;;;38.70;25.60;;;;;;5048861;28;19923;-69
2021/09/23 07:46:46;;;;;;;;;;;39.40;21.20;;;;;;5048872;28;19999;-69
2021/09/23 07:49:12;;;;;;;;;;;40.30;18.10;;;;;;5048847;28;19920;-70
2021/09/23 07:51:37;;;;;;;;;;;40.70;14.30;;;;;;5048720;28;19912;-68
2021/09/23 07:54:03;;;;;;;;;;;40.70;9.60;;;;;;5047455;28;19917;-69
2021/09/23 07:56:28;;;;;;;;;;;40.70;6.50;;;;;;5047922;28;20420;-69
2021/09/23 07:58:54;;;;;;;;;;;41.10;12.10;;;;;;5048577;28;19921;-68
2021/09/23 08:01:20;;;;;;;;;;;41.00;1.00;;;;;;5046913;28;19917;-69
2021/09/23 08:03:45;;;;;;;;;;;42.40;1.00;;;;;;5058250;28;19908;-69
2021/09/23 08:06:11;;;;;;;;;;;43.10;1.00;;;;;;5068935;28;20370;-69
2021/09/23 08:08:36;;;;;;;;;;;43.60;1.00;;;;;;5068265;28;19938;-69
2021/09/23 08:11:02;;;;;;;;;;;44.00;1.00;;;;;;5068046;28;19999;-69
2021/09/23 08:13:27;;;;;;;;;;;44.60;1.00;;;;;;5061368;28;20342;-69
2021/09/23 08:15:53;;;;;;;;;;;43.80;1.00;;;;;;5048175;28;19916;-69
2021/09/23 08:18:24;;;;;;;;;;;44.60;1.00;;;;;;5054102;28;19999;-68
2021/09/23 08:20:50;;;;;;;;;;;44.40;1.00;;;;;;5051439;28;19916;-69
2021/09/23 08:23:17;;;;;;;;;;;45.30;1.00;;;;;;5050008;28;19908;-69
2021/09/23 08:25:43;;;;;;;;;;;45.50;1.00;;;;;;5062712;28;19931;-69
2021/09/23 08:28:11;;;;;;;;;;;46.10;99.90;;;;;;5051999;28;19940;-69
2021/09/23 08:30:36;;;;;;;;;;;45.80;99.90;;;;;;5031969;28;20243;-69
2021/09/23 08:33:02;;;;;;;;;;;47.50;1.00;;;;;;5031795;28;19909;-69
2021/09/23 08:35:28;;;;;;;;;;;48.10;1.00;;;;;;5032045;28;19913;-70
2021/09/23 08:37:53;;;;;;;;;;;47.30;1.00;;;;;;5031996;28;19910;-70
2021/09/23 08:40:19;;;;;;;;;;;46.90;1.00;;;;;;5031761;28;19921;-70
2021/09/23 08:42:45;;;;;;;;;;;48.10;1.00;;;;;;5031045;28;19909;-69
2021/09/23 08:45:12;;;;;;;;;;;48.30;1.00;;;;;;5031683;28;20449;-70
2021/09/23 08:47:37;;;;;;;;;;;49.00;1.00;;;;;;5031991;28;19977;-69
2021/09/23 08:50:05;;;;;;;;;;;50.10;1.00;;;;;;5034460;28;20007;-70
2021/09/23 08:52:30;;;;;;;;;;;49.60;1.00;;;;;;5051308;28;19951;-70
2021/09/23 08:54:56;;;;;;;;;;;48.90;1.00;;;;;;5051634;28;19964;-70
2021/09/23 08:57:21;;;;;;;;;;;47.70;1.00;;;;;;5051073;28;20282;-69
2021/09/23 08:59:47;;;;;;;;;;;47.30;1.00;;;;;;5050452;28;19913;-69
2021/09/23 09:02:23;;;;;;;;;;;48.30;1.00;;;;;;5051401;28;20342;-70
2021/09/23 09:04:55;;;;;;;;;;;47.80;1.00;;;;;;5051635;28;19960;-69
2021/09/23 09:07:26;;;;;;;;;;;45.70;1.00;;;;;;5051672;28;19944;-69
2021/09/23 09:09:52;;;;;;;;;;;46.80;1.00;;;;;;5050918;28;20319;-70
2021/09/23 09:12:18;;;;;;;;;;;47.60;1.00;;;;;;5050372;28;19943;-69
2021/09/23 09:14:45;;;;;;;;;;;47.20;1.00;;;;;;5068061;28;20369;-70
2021/09/23 09:17:11;;;;;;;;;;;46.90;1.00;;;;;;5071583;28;19909;-69
2021/09/23 09:19:48;;;;;;;;;;;47.00;1.00;;;;;;5062580;28;20230;-69
2021/09/23 09:22:18;;;;;;;;;;;45.00;1.00;;;;;;5065308;28;19921;-69
2021/09/23 09:24:53;;;;;;;;;;;45.70;1.00;;;;;;5062334;28;19909;-69
2021/09/23 09:27:29;;;;;;;;;;;43.40;1.00;;;;;;5058723;28;19917;-70
2021/09/23 09:29:55;;;;;;;;;;;43.60;1.00;;;;;;5029605;28;19913;-69
2021/09/23 09:32:40;;;;;;;;;;;43.70;1.00;;;;;;5030512;28;19913;-69
2021/09/23 09:35:06;;;;;;;;;;;44.60;1.00;;;;;;5031449;28;19910;-69
2021/09/23 09:37:33;;;;;;;;;;;43.50;1.00;;;;;;5031144;28;20354;-69
2021/09/23 09:39:59;;;;;;;;;;;41.00;1.00;;;;;;5030713;28;19919;-69
2021/09/23 09:42:28;;;;;;;;;;;42.10;1.00;;;;;;5029787;28;19987;-69
2021/09/23 09:44:54;;;;;;;;;;;42.90;1.00;;;;;;5030760;28;19909;-70
2021/09/23 09:47:27;;;;;;;;;;;41.70;1.00;;;;;;5031387;28;20274;-69
2021/09/23 09:49:53;;;;;;;;;;;40.00;1.00;;;;;;5032094;28;19940;-68
2021/09/23 09:52:30;;;;;;;;;;;39.60;1.00;;;;;;5050424;28;19912;-69
2021/09/23 09:55:07;;;;;;;;;;;40.50;1.00;;;;;;5051229;28;19920;-70
2021/09/23 09:57:32;;;;;;;;;;;41.20;1.00;;;;;;5049658;28;19967;-69
2021/09/23 09:59:59;;;;;;;;;;;40.50;1.00;;;;;;5050620;28;20010;-69
2021/09/23 10:02:28;;;;;;;;;;;40.00;1.00;;;;;;5050004;28;20026;-69
2021/09/23 10:04:58;;;;;;;;;;;37.50;1.00;;;;;;5050815;28;19916;-69
2021/09/23 10:07:24;;;;;;;;;;;36.90;1.00;;;;;;5050818;28;19908;-68
2021/09/23 10:09:50;;;;;;;;;;;37.70;1.00;;;;;;5049363;28;20309;-69
2021/09/23 10:12:16;;;;;;;;;;;38.70;1.00;;;;;;5048006;28;19913;-69
2021/09/23 10:14:42;;;;;;;;;;;39.30;1.00;;;;;;5066117;28;19919;-69
2021/09/23 10:17:07;;;;;;;;;;;39.60;1.00;;;;;;5070588;28;20319;-69
2021/09/23 10:19:34;;;;;;;;;;;39.90;1.00;;;;;;5068857;28;19915;-69
2021/09/23 10:22:00;;;;;;;;;;;39.90;1.00;;;;;;5069661;28;19923;-69
2021/09/23 10:24:26;;;;;;;;;;;38.80;1.00;;;;;;5063118;28;19916;-69
2021/09/23 10:26:52;;;;;;;;;;;39.00;1.00;;;;;;5034543;28;20239;-69
2021/09/23 10:29:18;;;;;;;;;;;38.90;1.00;;;;;;5038421;28;20444;-69
2021/09/23 10:31:44;;;;;;;;;;;38.70;1.00;;;;;;5049600;28;19968;-70
2021/09/23 10:34:10;;;;;;;;;;;38.30;1.00;;;;;;5049815;28;19915;-69
2021/09/23 10:36:37;;;;;;;;;;;38.10;1.00;;;;;;5049738;28;20337;-68
2021/09/23 10:39:05;;;;;;;;;;;37.80;1.00;;;;;;5048890;28;20043;-69
2021/09/23 10:41:31;;;;;;;;;;;37.50;1.00;;;;;;5049371;28;20368;-69
2021/09/23 10:43:57;;;;;;;;;;;37.30;1.00;;;;;;5048062;28;19913;-69
2021/09/23 10:46:24;;;;;;;;;;;37.20;1.00;;;;;;5049941;28;19928;-69
2021/09/23 10:48:50;;;;;;;;;;;36.90;1.00;;;;;;5049769;28;19913;-69
2021/09/23 10:51:16;;;;;;;;;;;36.20;1.00;;;;;;5049841;28;20023;-69
2021/09/23 10:53:47;;;;;;;;;;;36.10;1.00;;;;;;5048395;28;19954;-69
2021/09/23 10:56:12;;;;;;;;;;;35.00;1.00;;;;;;5049369;28;20334;-69
2021/09/23 10:58:39;;;;;;;;;;;35.00;1.00;;;;;;5048519;28;19921;-67
2021/09/23 11:01:05;;;;;;;;;;;34.80;1.00;;;;;;5049500;28;20405;-67
2021/09/23 11:03:34;;;;;;;;;;;34.80;1.00;;;;;;5057667;28;20008;-67
2021/09/23 11:06:05;;;;;;;;;;;34.40;1.00;;;;;;5069513;28;19991;-67
2021/09/23 11:08:34;;;;;;;;;;;34.10;1.00;;;;;;5069308;28;20002;-68
2021/09/23 11:11:00;;;;;;;;;;;33.90;1.00;;;;;;5069421;28;19916;-69
2021/09/23 11:13:26;;;;;;;;;;;33.70;1.00;;;;;;5062815;28;19993;-67
2021/09/23 11:15:52;;;;;;;;;;;32.90;1.00;;;;;;5048151;28;19962;-67
2021/09/23 11:18:19;;;;;;;;;;;32.60;1.00;;;;;;5050090;28;19920;-67
2021/09/23 11:20:46;;;;;;;;;;;32.50;1.00;;;;;;5049449;28;19978;-68
2021/09/23 11:23:12;;;;;;;;;;;32.60;1.00;;;;;;5048562;28;20306;-68
2021/09/23 11:25:41;;;;;;;;;;;32.30;1.00;;;;;;5059423;28;19986;-68
2021/09/23 11:28:07;;;;;;;;;;;31.90;1.00;;;;;;5048922;28;20365;-68
2021/09/23 11:30:34;;;;;;;;;;;31.70;1.00;;;;;;5049021;28;19952;-68
2021/09/23 11:33:07;;;;;;;;;;;31.80;1.00;;;;;;5048323;28;20058;-68
2021/09/23 11:35:34;;;;;;;;;;;31.80;1.00;;;;;;5049506;28;20312;-68
2021/09/23 11:38:00;;;;;;;;;;;32.00;1.00;;;;;;5049429;28;20277;-68
2021/09/23 11:40:25;;;;;;;;;;;32.10;1.00;;;;;;5048873;28;19909;-68
2021/09/23 11:42:51;;;;;;;;;;;31.60;1.00;;;;;;5047363;28;20008;-68
2021/09/23 11:45:18;;;;;;;;;;;31.80;1.00;;;;;;5048665;28;19931;-69
2021/09/23 11:47:43;;;;;;;;;;;32.10;1.00;;;;;;5049021;28;19955;-70
2021/09/23 11:50:09;;;;;;;;;;;31.90;1.00;;;;;;5049109;28;19917;-70
2021/09/23 11:52:35;;;;;;;;;;;32.00;1.00;;;;;;5047910;28;19908;-69
2021/09/23 11:55:01;;;;;;;;;;;32.00;1.00;;;;;;5048195;28;19915;-69
2021/09/23 11:57:28;;;;;;;;;;;31.90;1.00;;;;;;5048049;28;19917;-68
2021/09/23 11:59:57;;;;;;;;;;;31.90;1.00;;;;;;5048558;28;19988;-68
2021/09/23 12:02:22;;;;;;;;;;;31.80;1.00;;;;;;5048095;28;20288;-69
2021/09/23 12:05:06;;;;;;;;;;;31.50;1.00;;;;;;5048750;28;19924;-68
2021/09/23 12:07:42;;;;;;;;;;;31.20;1.00;;;;;;5048989;28;19934;-69
2021/09/23 12:10:08;;;;;;;;;;;30.60;1.00;;;;;;5048478;28;19920;-67
2021/09/23 12:12:34;;;;;;;;;;;30.30;1.00;;;;;;5047399;28;19912;-68
2021/09/23 12:14:59;;;;;;;;;;;30.20;1.00;;;;;;5066808;28;19915;-67
2021/09/23 12:17:26;;;;;;;;;;;30.10;1.00;;;;;;5069212;28;20308;-69
2021/09/23 12:19:58;;;;;;;;;;;30.00;1.00;;;;;;5068880;28;19909;-68
2021/09/23 12:22:34;;;;;;;;;;;30.10;1.00;;;;;;5068585;28;19909;-68
2021/09/23 12:25:00;;;;;;;;;;;29.60;1.00;;;;;;5057553;28;19909;-68
2021/09/23 12:27:28;;;;;;;;;;;29.50;1.00;;;;;;5052020;28;19934;-68
2021/09/23 12:29:55;;;;;;;;;;;29.20;1.00;;;;;;5027954;28;19963;-68
2021/09/23 12:32:28;;;;;;;;;;;29.20;2.10;;;;;;5027993;28;19924;-68
2021/09/23 12:34:54;;;;;;;;;;;28.80;2.90;;;;;;5028479;28;19909;-67
2021/09/23 12:37:23;;;;;;;;;;;28.70;4.10;;;;;;5028453;28;19913;-69
2021/09/23 12:39:48;;;;;;;;;;;28.70;5.10;;;;;;5028175;28;19913;-67
2021/09/23 12:42:18;;;;;;;;;;;28.60;5.70;;;;;;5028582;28;19927;-69
2021/09/23 12:44:54;;;;;;;;;;;28.40;6.20;;;;;;5040143;28;19955;-67
2021/09/23 12:47:20;;;;;;;;;;;28.20;7.20;;;;;;5033868;28;20075;-68
2021/09/23 12:49:48;;;;;;;;;;;27.90;7.90;;;;;;5025654;28;19909;-67
2021/09/23 12:52:15;;;;;;;;;;;27.70;8.80;;;;;;5047589;28;19959;-68
2021/09/23 12:54:51;;;;;;;;;;;27.50;9.70;;;;;;5048031;28;20019;-68
2021/09/23 12:57:18;;;;;;;;;;;26.70;10.00;;;;;;5047799;28;19999;-68
2021/09/23 12:59:44;;;;;;;;;;;26.70;12.40;;;;;;5047513;28;19921;-69
2021/09/23 13:02:10;;;;;;;;;;;26.60;13.40;;;;;;5046057;28;19913;-69
2021/09/23 13:04:36;;;;;;;;;;;26.60;14.80;;;;;;5049846;28;19909;-69
2021/09/23 13:07:15;;;;;;;;;;;26.50;16.20;;;;;;5051770;28;19975;-68
2021/09/23 13:09:57;;;;;;;;;;;26.20;17.30;;;;;;5050705;28;19928;-70
2021/09/23 13:12:31;;;;;;;;;;;26.20;19.00;;;;;;5050549;28;20019;-68
2021/09/23 13:14:56;;;;;;;;;;;26.00;20.40;;;;;;5069247;28;19927;-69
2021/09/23 13:17:23;;;;;;;;;;;25.80;21.70;;;;;;5071357;28;20711;-69
2021/09/23 13:19:48;;;;;;;;;;;25.60;22.20;;;;;;5071242;28;19946;-68
2021/09/23 13:22:14;;;;;;;;;;;25.40;23.20;;;;;;5070878;28;19948;-68
2021/09/23 13:24:39;;;;;;;;;;;25.40;25.20;;;;;;5062672;28;20280;-69
2021/09/23 13:27:05;;;;;;;;;;;25.30;26.00;;;;;;5033893;28;19951;-69
2021/09/23 13:29:31;;;;;;;;;;;24.90;26.10;;;;;;5041189;28;19909;-67
2021/09/23 13:31:56;;;;;;;;;;;24.60;27.20;;;;;;5050406;28;20004;-69
2021/09/23 13:34:22;;;;;;;;;;;24.20;28.50;;;;;;5049864;28;19912;-69
2021/09/23 13:36:47;;;;;;;;;;;23.90;29.50;;;;;;5051392;28;19920;-68
2021/09/23 13:39:13;;;;;;;;;;;23.60;31.10;;;;;;5049315;28;20119;-72
2021/09/23 13:41:38;;;;;;;;;;;23.30;32.50;;;;;;5050555;28;19963;-70
2021/09/23 13:44:04;;;;;;;;;;;23.10;35.20;;;;;;5050256;28;19916;-71
2021/09/23 13:46:30;;;;;;;;;;;23.00;37.40;;;;;;5050762;28;19909;-69
2021/09/23 13:48:56;;;;;;;;;;;22.90;40.10;;;;;;5050819;28;19917;-67
2021/09/23 13:51:21;;;;;;;;;;;22.90;42.60;;;;;;5051121;28;20255;-68
2021/09/23 13:53:47;;;;;;;;;;;22.80;43.80;;;;;;5049379;28;19982;-69
2021/09/23 13:56:12;;;;;;;;;;;22.80;46.20;;;;;;5050799;28;20074;-68
2021/09/23 13:58:38;;;;;;;;;;;22.50;47.50;;;;;;5050478;28;20002;-67
2021/09/23 14:01:03;;;;;;;;;;;22.50;50.60;;;;;;5050309;28;20387;-68
2021/09/23 14:03:31;;;;;;;;;;;22.50;52.50;;;;;;5058897;28;19920;-69
2021/09/23 14:05:57;;;;;;;;;;;22.40;55.00;;;;;;5070443;28;19919;-68
2021/09/23 14:08:23;;;;;;;;;;;22.30;56.60;;;;;;5070846;28;19912;-69
2021/09/23 14:10:48;;;;;;;;;;;22.30;59.20;;;;;;5069910;28;20707;-69
2021/09/23 14:13:14;;;;;;;;;;;22.30;60.20;;;;;;5064136;28;19919;-67
2021/09/23 14:15:39;;;;;;;;;;;22.40;61.90;;;;;;5049398;28;19909;-68
2021/09/23 14:18:05;;;;;;;;;;;22.40;63.00;;;;;;5050372;28;19909;-69
2021/09/23 14:20:31;;;;;;;;;;;22.50;65.00;;;;;;5050207;28;20309;-68
2021/09/23 14:22:56;;;;;;;;;;;22.50;66.20;;;;;;5049878;28;19920;-68
2021/09/23 14:25:22;;;;;;;;;;;22.50;68.40;;;;;;5060244;28;19924;-69
2021/09/23 14:27:47;;;;;;;;;;;22.50;69.70;;;;;;5049582;28;19964;-69